Magrath, Canada
Current Conditions -  °F | °C
As of 10:00 PM on Monday 26 Jan 2015 (Local Time) from CYQL Reporting Station
Broken Clouds Broken Clouds  
Wind Chill: 42°   Ceiling: 30000
Heat Index: 46°   Visibility: 15mi
Dew Point: 30°   Wind: 9mph
Humidity: 53%   Direction: 240°WSW
Pressure: 29.81"   Gusts: NA
Location:  49.42°N, 112.87°W
Report Text: CYQL 270500Z 24008KT 15SM BKN300 08/M01 A2981 RMK CI5 LAST STFD OBS/NXT 271300Z SLP103
Loading
Personal Weather Stations






























Interactive Weather Map New forecast layout! Learn more

10-Day Weather Forecast

Advertisements
Track Severe Weather on mobile